Terminal Aerodrome Forecast
Issued by NWS Buffalo, NY

Home | Current Version | Previous Version | Text Only | Print | Product List | Glossary On
Versions: 1 2 3 4 5 6 7 8 9 10 11 12 13 14 15 16 17 18 19 20 21 22 23 24 25 26 27 28 29 30 31 32
000
FTUS41 KBUF 231300 AAA
TAFART
TAF AMD
KART 231359Z 2314/2412 06006KT P6SM VCSH OVC035
     FM231700 05006KT P6SM BKN035
     FM232100 05006KT P6SM SCT035 BKN200
     FM240100 VRB03KT P6SM BKN250=

USA.gov is the U.S. government's official web portal to all federal, state and local government web resources and services.